sensor_id;sensor_type;location;lat;lon;timestamp;temperature;humidity
75217;HTU21D;63800;51.972;5.682;2023-10-19T00:01:59;-9.41;118.99
75217;HTU21D;63800;51.972;5.682;2023-10-19T00:04:27;-9.43;118.99
75217;HTU21D;63800;51.972;5.682;2023-10-19T00:06:58;-9.57;118.99
75217;HTU21D;63800;51.972;5.682;2023-10-19T00:09:23;-9.58;118.99
75217;HTU21D;63800;51.972;5.682;2023-10-19T00:11:50;-9.45;118.99
75217;HTU21D;63800;51.972;5.682;2023-10-19T00:14:19;-9.41;118.99
75217;HTU21D;63800;51.972;5.682;2023-10-19T00:16:46;-9.40;118.99
75217;HTU21D;63800;51.972;5.682;2023-10-19T00:19:31;-9.41;118.99
75217;HTU21D;63800;51.972;5.682;2023-10-19T00:22:03;-9.42;118.99
75217;HTU21D;63800;51.972;5.682;2023-10-19T00:24:34;-9.33;118.99
75217;HTU21D;63800;51.972;5.682;2023-10-19T00:27:00;-9.30;118.99
75217;HTU21D;63800;51.972;5.682;2023-10-19T00:29:31;-9.40;118.99
75217;HTU21D;63800;51.972;5.682;2023-10-19T00:31:59;-9.37;118.99
75217;HTU21D;63800;51.972;5.682;2023-10-19T00:34:27;-9.30;118.99
75217;HTU21D;63800;51.972;5.682;2023-10-19T00:36:54;-9.38;118.99
75217;HTU21D;63800;51.972;5.682;2023-10-19T00:39:21;-9.44;118.99
75217;HTU21D;63800;51.972;5.682;2023-10-19T00:41:47;-9.36;118.99
75217;HTU21D;63800;51.972;5.682;2023-10-19T00:44:14;-9.41;118.99
75217;HTU21D;63800;51.972;5.682;2023-10-19T00:46:57;-9.45;118.99
75217;HTU21D;63800;51.972;5.682;2023-10-19T00:49:30;-9.51;118.99
75217;HTU21D;63800;51.972;5.682;2023-10-19T00:51:58;-9.52;118.99
75217;HTU21D;63800;51.972;5.682;2023-10-19T00:54:32;-9.38;118.99
75217;HTU21D;63800;51.972;5.682;2023-10-19T00:57:01;-9.38;118.99
75217;HTU21D;63800;51.972;5.682;2023-10-19T00:59:41;-9.32;118.99
75217;HTU21D;63800;51.972;5.682;2023-10-19T01:02:13;-9.32;118.99
75217;HTU21D;63800;51.972;5.682;2023-10-19T01:04:44;-9.27;118.99
75217;HTU21D;63800;51.972;5.682;2023-10-19T01:07:10;-9.27;118.99
75217;HTU21D;63800;51.972;5.682;2023-10-19T01:09:39;-9.37;118.99
75217;HTU21D;63800;51.972;5.682;2023-10-19T01:12:05;-9.36;118.99
75217;HTU21D;63800;51.972;5.682;2023-10-19T01:17:32;-9.31;118.99
75217;HTU21D;63800;51.972;5.682;2023-10-19T01:20:09;-9.31;118.99
75217;HTU21D;63800;51.972;5.682;2023-10-19T01:25:31;-9.24;118.99
75217;HTU21D;63800;51.972;5.682;2023-10-19T01:28:06;-9.24;118.99
75217;HTU21D;63800;51.972;5.682;2023-10-19T01:30:34;-9.37;118.99
75217;HTU21D;63800;51.972;5.682;2023-10-19T01:33:02;-9.43;118.99
75217;HTU21D;63800;51.972;5.682;2023-10-19T01:35:28;-9.66;118.99
75217;HTU21D;63800;51.972;5.682;2023-10-19T01:38:13;-9.63;118.99
75217;HTU21D;63800;51.972;5.682;2023-10-19T01:40:39;-9.61;118.99
75217;HTU21D;63800;51.972;5.682;2023-10-19T01:43:14;-9.61;118.99
75217;HTU21D;63800;51.972;5.682;2023-10-19T01:45:47;-9.60;118.99
75217;HTU21D;63800;51.972;5.682;2023-10-19T01:48:12;-9.56;118.99
75217;HTU21D;63800;51.972;5.682;2023-10-19T01:50:39;-9.57;118.99
75217;HTU21D;63800;51.972;5.682;2023-10-19T01:53:05;-9.56;118.99
75217;HTU21D;63800;51.972;5.682;2023-10-19T01:55:41;-9.56;118.99
75217;HTU21D;63800;51.972;5.682;2023-10-19T01:58:07;-9.56;118.99
75217;HTU21D;63800;51.972;5.682;2023-10-19T02:00:34;-9.47;118.99
75217;HTU21D;63800;51.972;5.682;2023-10-19T02:03:08;-9.47;118.99
75217;HTU21D;63800;51.972;5.682;2023-10-19T02:05:34;-9.51;118.99
75217;HTU21D;63800;51.972;5.682;2023-10-19T02:08:06;-9.44;118.99
75217;HTU21D;63800;51.972;5.682;2023-10-19T02:10:35;-9.48;118.99
75217;HTU21D;63800;51.972;5.682;2023-10-19T02:13:08;-9.56;118.99
75217;HTU21D;63800;51.972;5.682;2023-10-19T02:15:34;-9.52;118.99
75217;HTU21D;63800;51.972;5.682;2023-10-19T02:18:03;-9.42;118.99
75217;HTU21D;63800;51.972;5.682;2023-10-19T02:20:29;-9.52;118.99
75217;HTU21D;63800;51.972;5.682;2023-10-19T02:22:55;-9.46;118.99
75217;HTU21D;63800;51.972;5.682;2023-10-19T02:25:23;-9.43;118.99
75217;HTU21D;63800;51.972;5.682;2023-10-19T02:27:50;-9.40;118.99
75217;HTU21D;63800;51.972;5.682;2023-10-19T02:30:17;-9.45;118.99
75217;HTU21D;63800;51.972;5.682;2023-10-19T02:32:43;-9.54;118.99
75217;HTU21D;63800;51.972;5.682;2023-10-19T02:35:09;-9.60;118.99
75217;HTU21D;63800;51.972;5.682;2023-10-19T02:37:34;-9.61;118.99
75217;HTU21D;63800;51.972;5.682;2023-10-19T02:40:00;-9.68;118.99
75217;HTU21D;63800;51.972;5.682;2023-10-19T02:42:25;-9.69;118.99
75217;HTU21D;63800;51.972;5.682;2023-10-19T02:44:51;-9.74;118.99
75217;HTU21D;63800;51.972;5.682;2023-10-19T02:47:16;-9.75;118.99
75217;HTU21D;63800;51.972;5.682;2023-10-19T02:49:42;-9.74;118.99
75217;HTU21D;63800;51.972;5.682;2023-10-19T02:52:16;-9.77;118.99
75217;HTU21D;63800;51.972;5.682;2023-10-19T02:54:41;-9.77;118.99
75217;HTU21D;63800;51.972;5.682;2023-10-19T02:57:07;-9.76;118.99
75217;HTU21D;63800;51.972;5.682;2023-10-19T02:59:34;-9.75;118.99
75217;HTU21D;63800;51.972;5.682;2023-10-19T03:02:01;-9.75;118.99
75217;HTU21D;63800;51.972;5.682;2023-10-19T03:04:42;-9.75;118.99
75217;HTU21D;63800;51.972;5.682;2023-10-19T03:07:09;-9.75;118.99
75217;HTU21D;63800;51.972;5.682;2023-10-19T03:09:41;-9.75;118.99
75217;HTU21D;63800;51.972;5.682;2023-10-19T03:12:19;-9.79;118.99
75217;HTU21D;63800;51.972;5.682;2023-10-19T03:14:45;-9.78;118.99
75217;HTU21D;63800;51.972;5.682;2023-10-19T03:17:14;-9.74;118.99
75217;HTU21D;63800;51.972;5.682;2023-10-19T03:19:39;-9.77;118.99
75217;HTU21D;63800;51.972;5.682;2023-10-19T03:22:05;-9.78;118.99
75217;HTU21D;63800;51.972;5.682;2023-10-19T03:24:32;-9.82;118.99
75217;HTU21D;63800;51.972;5.682;2023-10-19T03:27:07;-9.82;118.99
75217;HTU21D;63800;51.972;5.682;2023-10-19T03:29:42;-9.73;118.99
75217;HTU21D;63800;51.972;5.682;2023-10-19T03:32:12;-9.66;118.99
75217;HTU21D;63800;51.972;5.682;2023-10-19T03:34:37;-9.42;118.99
75217;HTU21D;63800;51.972;5.682;2023-10-19T03:37:03;-9.31;118.99
75217;HTU21D;63800;51.972;5.682;2023-10-19T03:39:34;-9.23;118.99
75217;HTU21D;63800;51.972;5.682;2023-10-19T03:41:59;-9.12;118.99
75217;HTU21D;63800;51.972;5.682;2023-10-19T03:44:26;-9.09;118.99
75217;HTU21D;63800;51.972;5.682;2023-10-19T03:46:51;-9.16;118.99
75217;HTU21D;63800;51.972;5.682;2023-10-19T03:49:25;-9.12;118.99
75217;HTU21D;63800;51.972;5.682;2023-10-19T03:51:55;-9.16;118.99
75217;HTU21D;63800;51.972;5.682;2023-10-19T03:54:25;-9.26;118.99
75217;HTU21D;63800;51.972;5.682;2023-10-19T03:56:52;-9.27;118.99
75217;HTU21D;63800;51.972;5.682;2023-10-19T03:59:18;-9.25;118.99
75217;HTU21D;63800;51.972;5.682;2023-10-19T04:01:44;-9.07;118.99
75217;HTU21D;63800;51.972;5.682;2023-10-19T04:04:12;-9.11;118.99
75217;HTU21D;63800;51.972;5.682;2023-10-19T04:06:39;-9.16;118.99
75217;HTU21D;63800;51.972;5.682;2023-10-19T04:09:05;-9.20;118.99
75217;HTU21D;63800;51.972;5.682;2023-10-19T04:11:32;-9.20;118.99
75217;HTU21D;63800;51.972;5.682;2023-10-19T04:14:01;-9.15;118.99
75217;HTU21D;63800;51.972;5.682;2023-10-19T04:16:29;-9.14;118.99
75217;HTU21D;63800;51.972;5.682;2023-10-19T04:18:56;-9.16;118.99
75217;HTU21D;63800;51.972;5.682;2023-10-19T04:21:23;-9.10;118.99
75217;HTU21D;63800;51.972;5.682;2023-10-19T04:23:48;-9.14;118.99
75217;HTU21D;63800;51.972;5.682;2023-10-19T04:26:14;-9.19;118.99
75217;HTU21D;63800;51.972;5.682;2023-10-19T04:28:43;-9.20;118.99
75217;HTU21D;63800;51.972;5.682;2023-10-19T04:31:15;-9.25;118.99
75217;HTU21D;63800;51.972;5.682;2023-10-19T04:33:42;-9.31;118.99
75217;HTU21D;63800;51.972;5.682;2023-10-19T04:36:10;-9.33;118.99
75217;HTU21D;63800;51.972;5.682;2023-10-19T04:38:37;-9.34;118.99
75217;HTU21D;63800;51.972;5.682;2023-10-19T04:41:09;-9.34;118.99
75217;HTU21D;63800;51.972;5.682;2023-10-19T04:43:39;-9.48;118.99
75217;HTU21D;63800;51.972;5.682;2023-10-19T04:46:09;-9.52;118.99
75217;HTU21D;63800;51.972;5.682;2023-10-19T04:48:38;-9.54;118.99
75217;HTU21D;63800;51.972;5.682;2023-10-19T04:51:06;-9.54;118.99
75217;HTU21D;63800;51.972;5.682;2023-10-19T04:53:32;-9.60;118.99
75217;HTU21D;63800;51.972;5.682;2023-10-19T04:55:57;-9.63;118.99
75217;HTU21D;63800;51.972;5.682;2023-10-19T04:58:26;-9.66;118.99
75217;HTU21D;63800;51.972;5.682;2023-10-19T05:00:52;-9.70;118.99
75217;HTU21D;63800;51.972;5.682;2023-10-19T05:03:18;-9.71;118.99
75217;HTU21D;63800;51.972;5.682;2023-10-19T05:05:44;-9.70;118.99
75217;HTU21D;63800;51.972;5.682;2023-10-19T05:08:10;-9.71;118.99
75217;HTU21D;63800;51.972;5.682;2023-10-19T05:10:35;-9.72;118.99
75217;HTU21D;63800;51.972;5.682;2023-10-19T05:13:01;-9.69;118.99
75217;HTU21D;63800;51.972;5.682;2023-10-19T05:15:27;-9.71;118.99
75217;HTU21D;63800;51.972;5.682;2023-10-19T05:17:52;-9.71;118.99
75217;HTU21D;63800;51.972;5.682;2023-10-19T05:20:18;-9.69;118.99
75217;HTU21D;63800;51.972;5.682;2023-10-19T05:22:46;-9.70;118.99
75217;HTU21D;63800;51.972;5.682;2023-10-19T05:25:11;-9.69;118.99
75217;HTU21D;63800;51.972;5.682;2023-10-19T05:27:38;-9.70;118.99
75217;HTU21D;63800;51.972;5.682;2023-10-19T05:30:04;-9.74;118.99
75217;HTU21D;63800;51.972;5.682;2023-10-19T05:32:30;-9.71;118.99
75217;HTU21D;63800;51.972;5.682;2023-10-19T05:34:56;-9.72;118.99
75217;HTU21D;63800;51.972;5.682;2023-10-19T05:37:22;-9.71;118.99
75217;HTU21D;63800;51.972;5.682;2023-10-19T05:39:48;-9.73;118.99
75217;HTU21D;63800;51.972;5.682;2023-10-19T05:42:17;-9.69;118.99
75217;HTU21D;63800;51.972;5.682;2023-10-19T05:44:42;-9.67;118.99
75217;HTU21D;63800;51.972;5.682;2023-10-19T05:47:08;-9.68;118.99
75217;HTU21D;63800;51.972;5.682;2023-10-19T05:49:33;-9.71;118.99
75217;HTU21D;63800;51.972;5.682;2023-10-19T05:51:59;-9.67;118.99
75217;HTU21D;63800;51.972;5.682;2023-10-19T05:54:25;-9.63;118.99
75217;HTU21D;63800;51.972;5.682;2023-10-19T05:56:50;-9.62;118.99
75217;HTU21D;63800;51.972;5.682;2023-10-19T05:59:17;-9.66;118.99
75217;HTU21D;63800;51.972;5.682;2023-10-19T06:01:42;-9.68;118.99
75217;HTU21D;63800;51.972;5.682;2023-10-19T06:04:12;-9.66;118.99
75217;HTU21D;63800;51.972;5.682;2023-10-19T06:06:38;-9.70;118.99
75217;HTU21D;63800;51.972;5.682;2023-10-19T06:09:05;-9.69;118.99
75217;HTU21D;63800;51.972;5.682;2023-10-19T06:11:33;-9.68;118.99
75217;HTU21D;63800;51.972;5.682;2023-10-19T06:14:01;-9.67;118.99
75217;HTU21D;63800;51.972;5.682;2023-10-19T06:16:27;-9.69;118.99
75217;HTU21D;63800;51.972;5.682;2023-10-19T06:18:54;-9.72;118.99
75217;HTU21D;63800;51.972;5.682;2023-10-19T06:21:20;-9.70;118.99
75217;HTU21D;63800;51.972;5.682;2023-10-19T06:23:45;-9.69;118.99
75217;HTU21D;63800;51.972;5.682;2023-10-19T06:26:11;-9.67;118.99
75217;HTU21D;63800;51.972;5.682;2023-10-19T06:28:38;-9.69;118.99
75217;HTU21D;63800;51.972;5.682;2023-10-19T06:31:05;-9.68;118.99
75217;HTU21D;63800;51.972;5.682;2023-10-19T06:33:30;-9.69;118.99
75217;HTU21D;63800;51.972;5.682;2023-10-19T06:35:58;-9.72;118.99
75217;HTU21D;63800;51.972;5.682;2023-10-19T06:38:24;-9.71;118.99
75217;HTU21D;63800;51.972;5.682;2023-10-19T06:40:51;-9.72;118.99
75217;HTU21D;63800;51.972;5.682;2023-10-19T06:43:17;-9.70;118.99
75217;HTU21D;63800;51.972;5.682;2023-10-19T06:45:44;-9.67;118.99
75217;HTU21D;63800;51.972;5.682;2023-10-19T06:48:10;-9.71;118.99
75217;HTU21D;63800;51.972;5.682;2023-10-19T06:50:36;-9.73;118.99
75217;HTU21D;63800;51.972;5.682;2023-10-19T06:53:03;-9.72;118.99
75217;HTU21D;63800;51.972;5.682;2023-10-19T06:55:30;-9.73;118.99
75217;HTU21D;63800;51.972;5.682;2023-10-19T06:57:55;-9.72;118.99
75217;HTU21D;63800;51.972;5.682;2023-10-19T07:00:23;-9.76;118.99
75217;HTU21D;63800;51.972;5.682;2023-10-19T07:02:51;-9.74;118.99
75217;HTU21D;63800;51.972;5.682;2023-10-19T07:05:17;-9.69;118.99
75217;HTU21D;63800;51.972;5.682;2023-10-19T07:07:45;-9.67;118.99
75217;HTU21D;63800;51.972;5.682;2023-10-19T07:10:12;-9.66;118.99
75217;HTU21D;63800;51.972;5.682;2023-10-19T07:12:40;-9.63;118.99
75217;HTU21D;63800;51.972;5.682;2023-10-19T07:15:07;-9.60;118.99
75217;HTU21D;63800;51.972;5.682;2023-10-19T07:17:36;-9.55;118.99
75217;HTU21D;63800;51.972;5.682;2023-10-19T07:20:04;-9.53;118.99
75217;HTU21D;63800;51.972;5.682;2023-10-19T07:22:32;-9.51;118.99
75217;HTU21D;63800;51.972;5.682;2023-10-19T07:24:57;-9.46;118.99
75217;HTU21D;63800;51.972;5.682;2023-10-19T07:27:23;-9.43;118.99
75217;HTU21D;63800;51.972;5.682;2023-10-19T07:29:51;-9.38;118.99
75217;HTU21D;63800;51.972;5.682;2023-10-19T07:32:17;-9.27;118.99
75217;HTU21D;63800;51.972;5.682;2023-10-19T07:34:42;-9.23;118.99
75217;HTU21D;63800;51.972;5.682;2023-10-19T07:37:10;-9.11;118.99
75217;HTU21D;63800;51.972;5.682;2023-10-19T07:39:44;-9.08;118.99
75217;HTU21D;63800;51.972;5.682;2023-10-19T07:42:10;-9.03;118.99
75217;HTU21D;63800;51.972;5.682;2023-10-19T07:44:36;-9.03;118.99
75217;HTU21D;63800;51.972;5.682;2023-10-19T07:47:02;-9.00;118.99
75217;HTU21D;63800;51.972;5.682;2023-10-19T07:49:27;-8.98;118.99
75217;HTU21D;63800;51.972;5.682;2023-10-19T07:51:53;-8.98;118.99
75217;HTU21D;63800;51.972;5.682;2023-10-19T07:54:18;-8.97;118.99
75217;HTU21D;63800;51.972;5.682;2023-10-19T07:56:45;-8.92;118.99
75217;HTU21D;63800;51.972;5.682;2023-10-19T07:59:12;-8.87;118.99
75217;HTU21D;63800;51.972;5.682;2023-10-19T08:01:38;-8.96;118.99
75217;HTU21D;63800;51.972;5.682;2023-10-19T08:04:04;-8.87;118.99
75217;HTU21D;63800;51.972;5.682;2023-10-19T08:06:30;-8.87;118.99
75217;HTU21D;63800;51.972;5.682;2023-10-19T08:08:56;-8.85;118.99
75217;HTU21D;63800;51.972;5.682;2023-10-19T08:11:23;-8.90;118.99
75217;HTU21D;63800;51.972;5.682;2023-10-19T08:13:49;-8.87;118.99
75217;HTU21D;63800;51.972;5.682;2023-10-19T08:16:15;-8.88;118.99
75217;HTU21D;63800;51.972;5.682;2023-10-19T08:18:42;-8.88;118.99
75217;HTU21D;63800;51.972;5.682;2023-10-19T08:21:07;-8.97;118.99
75217;HTU21D;63800;51.972;5.682;2023-10-19T08:23:33;-8.88;118.99
75217;HTU21D;63800;51.972;5.682;2023-10-19T08:25:58;-8.83;118.99
75217;HTU21D;63800;51.972;5.682;2023-10-19T08:28:25;-8.84;118.99
75217;HTU21D;63800;51.972;5.682;2023-10-19T08:30:50;-8.85;118.99
75217;HTU21D;63800;51.972;5.682;2023-10-19T08:33:26;-8.86;118.99
75217;HTU21D;63800;51.972;5.682;2023-10-19T08:35:52;-8.81;118.99
75217;HTU21D;63800;51.972;5.682;2023-10-19T08:38:19;-8.80;118.99
75217;HTU21D;63800;51.972;5.682;2023-10-19T08:40:44;-8.69;118.99
75217;HTU21D;63800;51.972;5.682;2023-10-19T08:43:11;-8.70;118.99
75217;HTU21D;63800;51.972;5.682;2023-10-19T08:45:38;-8.65;118.99
75217;HTU21D;63800;51.972;5.682;2023-10-19T08:48:04;-8.59;118.99
75217;HTU21D;63800;51.972;5.682;2023-10-19T08:50:32;-8.64;118.99
75217;HTU21D;63800;51.972;5.682;2023-10-19T08:53:00;-8.66;118.99
75217;HTU21D;63800;51.972;5.682;2023-10-19T08:55:28;-8.67;118.99
75217;HTU21D;63800;51.972;5.682;2023-10-19T08:57:56;-8.63;118.99
75217;HTU21D;63800;51.972;5.682;2023-10-19T09:00:24;-8.62;118.99
75217;HTU21D;63800;51.972;5.682;2023-10-19T09:02:55;-8.55;118.99
75217;HTU21D;63800;51.972;5.682;2023-10-19T09:05:25;-8.51;118.99
75217;HTU21D;63800;51.972;5.682;2023-10-19T09:07:53;-8.54;118.99
75217;HTU21D;63800;51.972;5.682;2023-10-19T09:10:22;-8.46;118.99
75217;HTU21D;63800;51.972;5.682;2023-10-19T09:13:02;-8.43;118.99
75217;HTU21D;63800;51.972;5.682;2023-10-19T09:15:29;-8.45;118.99
75217;HTU21D;63800;51.972;5.682;2023-10-19T09:17:58;-8.33;118.99
75217;HTU21D;63800;51.972;5.682;2023-10-19T09:20:23;-8.31;118.99
75217;HTU21D;63800;51.972;5.682;2023-10-19T09:22:56;-8.27;118.99
75217;HTU21D;63800;51.972;5.682;2023-10-19T09:25:27;-8.36;118.99
75217;HTU21D;63800;51.972;5.682;2023-10-19T09:27:53;-8.23;118.99
75217;HTU21D;63800;51.972;5.682;2023-10-19T09:30:19;-8.29;118.99
75217;HTU21D;63800;51.972;5.682;2023-10-19T09:32:46;-8.16;118.99
75217;HTU21D;63800;51.972;5.682;2023-10-19T09:35:14;-8.15;118.99
75217;HTU21D;63800;51.972;5.682;2023-10-19T09:37:42;-8.01;118.99
75217;HTU21D;63800;51.972;5.682;2023-10-19T09:40:09;-7.90;118.99
75217;HTU21D;63800;51.972;5.682;2023-10-19T09:42:43;-7.86;118.99
75217;HTU21D;63800;51.972;5.682;2023-10-19T09:45:12;-7.75;118.99
75217;HTU21D;63800;51.972;5.682;2023-10-19T09:47:41;-7.66;118.99
75217;HTU21D;63800;51.972;5.682;2023-10-19T09:50:07;-7.71;118.99
75217;HTU21D;63800;51.972;5.682;2023-10-19T09:52:33;-7.52;118.99
75217;HTU21D;63800;51.972;5.682;2023-10-19T09:55:06;-7.48;118.99
75217;HTU21D;63800;51.972;5.682;2023-10-19T10:00:09;-7.57;118.99
75217;HTU21D;63800;51.972;5.682;2023-10-19T10:02:39;-7.69;118.99
75217;HTU21D;63800;51.972;5.682;2023-10-19T10:10:50;-7.25;118.99
75217;HTU21D;63800;51.972;5.682;2023-10-19T10:15:54;-7.05;118.99
75217;HTU21D;63800;51.972;5.682;2023-10-19T10:18:20;-7.01;118.99
75217;HTU21D;63800;51.972;5.682;2023-10-19T10:20:46;-6.70;118.99
75217;HTU21D;63800;51.972;5.682;2023-10-19T10:23:21;-7.03;118.99
75217;HTU21D;63800;51.972;5.682;2023-10-19T10:25:49;-7.13;118.99
75217;HTU21D;63800;51.972;5.682;2023-10-19T10:28:16;-7.21;118.99
75217;HTU21D;63800;51.972;5.682;2023-10-19T10:31:08;-7.22;118.99
75217;HTU21D;63800;51.972;5.682;2023-10-19T10:36:07;-7.06;118.99
75217;HTU21D;63800;51.972;5.682;2023-10-19T10:38:34;-7.05;118.99
75217;HTU21D;63800;51.972;5.682;2023-10-19T10:41:03;-7.10;118.99
75217;HTU21D;63800;51.972;5.682;2023-10-19T10:43:29;-7.08;118.99
75217;HTU21D;63800;51.972;5.682;2023-10-19T10:46:07;-7.18;118.99
75217;HTU21D;63800;51.972;5.682;2023-10-19T10:48:33;-7.21;118.99
75217;HTU21D;63800;51.972;5.682;2023-10-19T10:50:59;-7.31;118.99
75217;HTU21D;63800;51.972;5.682;2023-10-19T10:53:24;-7.40;118.99
75217;HTU21D;63800;51.972;5.682;2023-10-19T10:55:55;-7.55;118.99
75217;HTU21D;63800;51.972;5.682;2023-10-19T10:58:25;-7.65;118.99
75217;HTU21D;63800;51.972;5.682;2023-10-19T11:00:50;-7.55;118.99
75217;HTU21D;63800;51.972;5.682;2023-10-19T11:03:16;-7.55;118.99
75217;HTU21D;63800;51.972;5.682;2023-10-19T11:05:42;-7.35;118.99
75217;HTU21D;63800;51.972;5.682;2023-10-19T11:08:16;-7.23;118.99
75217;HTU21D;63800;51.972;5.682;2023-10-19T11:10:44;-7.01;118.99
75217;HTU21D;63800;51.972;5.682;2023-10-19T11:13:13;-6.50;118.99
75217;HTU21D;63800;51.972;5.682;2023-10-19T11:15:47;-5.68;118.99
75217;HTU21D;63800;51.972;5.682;2023-10-19T11:18:40;-5.19;118.99
75217;HTU21D;63800;51.972;5.682;2023-10-19T11:21:10;-5.07;118.99
75217;HTU21D;63800;51.972;5.682;2023-10-19T11:23:46;-5.17;118.99
75217;HTU21D;63800;51.972;5.682;2023-10-19T11:26:23;-5.52;118.99
75217;HTU21D;63800;51.972;5.682;2023-10-19T11:29:01;-6.11;118.99
75217;HTU21D;63800;51.972;5.682;2023-10-19T11:31:26;-5.96;118.99
75217;HTU21D;63800;51.972;5.682;2023-10-19T11:33:54;-5.56;118.99
75217;HTU21D;63800;51.972;5.682;2023-10-19T11:36:24;-5.67;118.99
75217;HTU21D;63800;51.972;5.682;2023-10-19T11:38:51;-5.82;118.99
75217;HTU21D;63800;51.972;5.682;2023-10-19T11:41:17;-6.08;118.99
75217;HTU21D;63800;51.972;5.682;2023-10-19T11:43:46;-6.33;118.99
75217;HTU21D;63800;51.972;5.682;2023-10-19T11:46:11;-5.63;118.99
75217;HTU21D;63800;51.972;5.682;2023-10-19T11:48:38;-4.95;118.99
75217;HTU21D;63800;51.972;5.682;2023-10-19T11:51:05;-4.83;118.99
75217;HTU21D;63800;51.972;5.682;2023-10-19T11:53:36;-3.75;118.99
75217;HTU21D;63800;51.972;5.682;2023-10-19T11:56:11;-4.72;118.99
75217;HTU21D;63800;51.972;5.682;2023-10-19T11:58:38;-5.09;118.99
75217;HTU21D;63800;51.972;5.682;2023-10-19T12:01:06;-5.65;118.99
75217;HTU21D;63800;51.972;5.682;2023-10-19T12:03:36;-5.16;118.99
75217;HTU21D;63800;51.972;5.682;2023-10-19T12:06:03;-5.29;118.99
75217;HTU21D;63800;51.972;5.682;2023-10-19T12:08:34;-5.71;118.99
75217;HTU21D;63800;51.972;5.682;2023-10-19T12:11:01;-5.94;118.99
75217;HTU21D;63800;51.972;5.682;2023-10-19T12:13:28;-5.87;118.99
75217;HTU21D;63800;51.972;5.682;2023-10-19T12:15:54;-6.13;118.99
75217;HTU21D;63800;51.972;5.682;2023-10-19T12:18:21;-6.13;118.99
75217;HTU21D;63800;51.972;5.682;2023-10-19T12:20:47;-6.00;118.99
75217;HTU21D;63800;51.972;5.682;2023-10-19T12:23:13;-6.00;118.99
75217;HTU21D;63800;51.972;5.682;2023-10-19T12:25:39;-5.99;118.99
75217;HTU21D;63800;51.972;5.682;2023-10-19T12:28:04;-6.05;118.99
75217;HTU21D;63800;51.972;5.682;2023-10-19T12:30:30;-6.13;118.99
75217;HTU21D;63800;51.972;5.682;2023-10-19T12:33:04;-6.28;118.99
75217;HTU21D;63800;51.972;5.682;2023-10-19T12:35:37;-6.45;118.99
75217;HTU21D;63800;51.972;5.682;2023-10-19T12:38:17;-6.24;118.99
75217;HTU21D;63800;51.972;5.682;2023-10-19T12:40:47;-6.34;118.99
75217;HTU21D;63800;51.972;5.682;2023-10-19T12:43:13;-6.41;118.99
75217;HTU21D;63800;51.972;5.682;2023-10-19T12:45:39;-6.50;118.99
75217;HTU21D;63800;51.972;5.682;2023-10-19T12:48:06;-6.50;118.99
75217;HTU21D;63800;51.972;5.682;2023-10-19T12:50:33;-6.44;118.99
75217;HTU21D;63800;51.972;5.682;2023-10-19T12:52:59;-6.49;118.99
75217;HTU21D;63800;51.972;5.682;2023-10-19T12:55:25;-6.63;118.99
75217;HTU21D;63800;51.972;5.682;2023-10-19T12:57:53;-6.70;118.99
75217;HTU21D;63800;51.972;5.682;2023-10-19T13:00:18;-6.59;118.99
75217;HTU21D;63800;51.972;5.682;2023-10-19T13:03:01;-6.62;118.99
75217;HTU21D;63800;51.972;5.682;2023-10-19T13:05:32;-6.77;118.99
75217;HTU21D;63800;51.972;5.682;2023-10-19T13:07:58;-6.73;118.99
75217;HTU21D;63800;51.972;5.682;2023-10-19T13:10:34;-6.63;118.99
75217;HTU21D;63800;51.972;5.682;2023-10-19T13:13:04;-6.74;118.99
75217;HTU21D;63800;51.972;5.682;2023-10-19T13:15:32;-6.90;118.99
75217;HTU21D;63800;51.972;5.682;2023-10-19T13:18:00;-6.89;118.99
75217;HTU21D;63800;51.972;5.682;2023-10-19T13:20:26;-7.04;118.99
75217;HTU21D;63800;51.972;5.682;2023-10-19T13:22:52;-7.01;118.99
75217;HTU21D;63800;51.972;5.682;2023-10-19T13:25:18;-6.77;118.99
75217;HTU21D;63800;51.972;5.682;2023-10-19T13:27:46;-7.04;118.99
75217;HTU21D;63800;51.972;5.682;2023-10-19T13:30:12;-7.30;118.99
75217;HTU21D;63800;51.972;5.682;2023-10-19T13:32:40;-7.22;118.99
75217;HTU21D;63800;51.972;5.682;2023-10-19T13:35:06;-7.33;118.99
75217;HTU21D;63800;51.972;5.682;2023-10-19T13:37:32;-6.91;118.99
75217;HTU21D;63800;51.972;5.682;2023-10-19T13:39:57;-6.18;118.99
75217;HTU21D;63800;51.972;5.682;2023-10-19T13:42:24;-6.60;118.99
75217;HTU21D;63800;51.972;5.682;2023-10-19T13:44:50;-6.80;118.99
75217;HTU21D;63800;51.972;5.682;2023-10-19T13:47:15;-6.83;118.99
75217;HTU21D;63800;51.972;5.682;2023-10-19T13:49:41;-7.16;118.99
75217;HTU21D;63800;51.972;5.682;2023-10-19T13:52:07;-6.64;118.99
75217;HTU21D;63800;51.972;5.682;2023-10-19T13:54:34;-6.98;118.99
75217;HTU21D;63800;51.972;5.682;2023-10-19T13:57:00;-6.26;118.99
75217;HTU21D;63800;51.972;5.682;2023-10-19T13:59:28;-6.19;118.99
75217;HTU21D;63800;51.972;5.682;2023-10-19T14:01:54;-6.31;118.99
75217;HTU21D;63800;51.972;5.682;2023-10-19T14:04:19;-6.23;118.99
75217;HTU21D;63800;51.972;5.682;2023-10-19T14:06:45;-6.48;118.99
75217;HTU21D;63800;51.972;5.682;2023-10-19T14:09:14;-6.65;118.99
75217;HTU21D;63800;51.972;5.682;2023-10-19T14:11:40;-6.67;118.99
75217;HTU21D;63800;51.972;5.682;2023-10-19T14:14:06;-6.71;118.99
75217;HTU21D;63800;51.972;5.682;2023-10-19T14:16:32;-6.89;118.99
75217;HTU21D;63800;51.972;5.682;2023-10-19T14:18:57;-7.15;118.99
75217;HTU21D;63800;51.972;5.682;2023-10-19T14:21:23;-7.03;118.99
75217;HTU21D;63800;51.972;5.682;2023-10-19T14:23:52;-7.03;118.99
75217;HTU21D;63800;51.972;5.682;2023-10-19T14:26:19;-6.94;118.99
75217;HTU21D;63800;51.972;5.682;2023-10-19T14:28:44;-6.79;118.99
75217;HTU21D;63800;51.972;5.682;2023-10-19T14:31:10;-6.92;118.99
75217;HTU21D;63800;51.972;5.682;2023-10-19T14:33:37;-6.78;118.99
75217;HTU21D;63800;51.972;5.682;2023-10-19T14:36:03;-6.75;118.99
75217;HTU21D;63800;51.972;5.682;2023-10-19T14:38:30;-6.71;118.99
75217;HTU21D;63800;51.972;5.682;2023-10-19T14:40:55;-6.91;118.99
75217;HTU21D;63800;51.972;5.682;2023-10-19T14:43:21;-6.78;118.99
75217;HTU21D;63800;51.972;5.682;2023-10-19T14:45:46;-6.68;118.99
75217;HTU21D;63800;51.972;5.682;2023-10-19T14:48:11;-6.70;118.99
75217;HTU21D;63800;51.972;5.682;2023-10-19T14:50:37;-6.82;118.99
75217;HTU21D;63800;51.972;5.682;2023-10-19T14:53:03;-6.62;118.99
75217;HTU21D;63800;51.972;5.682;2023-10-19T14:55:29;-6.82;118.99
75217;HTU21D;63800;51.972;5.682;2023-10-19T14:57:55;-6.92;118.99
75217;HTU21D;63800;51.972;5.682;2023-10-19T15:00:25;-7.04;118.99
75217;HTU21D;63800;51.972;5.682;2023-10-19T15:02:58;-6.81;118.99
75217;HTU21D;63800;51.972;5.682;2023-10-19T15:05:27;-6.86;118.99
75217;HTU21D;63800;51.972;5.682;2023-10-19T15:07:53;-6.80;118.99
75217;HTU21D;63800;51.972;5.682;2023-10-19T15:10:26;-6.74;118.99
75217;HTU21D;63800;51.972;5.682;2023-10-19T15:12:56;-6.68;118.99
75217;HTU21D;63800;51.972;5.682;2023-10-19T15:15:30;-6.87;118.99
75217;HTU21D;63800;51.972;5.682;2023-10-19T15:17:57;-6.95;118.99
75217;HTU21D;63800;51.972;5.682;2023-10-19T15:20:28;-6.83;118.99
75217;HTU21D;63800;51.972;5.682;2023-10-19T15:22:55;-7.00;118.99
75217;HTU21D;63800;51.972;5.682;2023-10-19T15:25:21;-6.75;118.99
75217;HTU21D;63800;51.972;5.682;2023-10-19T15:27:49;-6.65;118.99